Time,TemperatureF,DewpointF,PressureIn,WindDirection,WindDirectionDegrees,WindSpeedMPH,WindSpeedGustMPH,Humidity,HourlyPrecipIn,Conditions,Clouds,dailyrainin,SoftwareType,DateUTC
2013-04-06 00:05:00,52.0,-99.9,-100.00,NW,305,12.0,14.0,-999,-99.99,,,-99.99,,2013-04-06 04:05:00,
2013-04-06 00:14:00,52.0,-99.9,-100.00,NW,310,12.0,15.0,-999,-99.99,,,-99.99,,2013-04-06 04:14:00,
2013-04-06 00:23:00,51.0,-99.9,-100.00,NW,305,11.0,14.0,-999,-99.99,,,-99.99,,2013-04-06 04:23:00,
2013-04-06 00:33:00,51.0,-99.9,-100.00,WNW,300,11.0,13.0,-999,-99.99,,,-99.99,,2013-04-06 04:33:00,
2013-04-06 00:43:00,52.0,-99.9,-100.00,NW,320,11.0,13.0,-999,-99.99,,,-99.99,,2013-04-06 04:43:00,
2013-04-06 00:53:00,53.0,-99.9,-100.00,NW,325,8.0,14.0,-999,-99.99,,,-99.99,,2013-04-06 04:53:00,
2013-04-06 01:02:00,51.0,-99.9,-100.00,NW,315,10.0,14.0,-999,-99.99,,,-99.99,,2013-04-06 05:02:00,
2013-04-06 01:14:00,52.0,-99.9,-100.00,NW,325,6.0,11.0,-999,-99.99,,,-99.99,,2013-04-06 05:14:00,
2013-04-06 01:23:00,52.0,-99.9,-100.00,NNW,330,7.0,10.0,-999,-99.99,,,-99.99,,2013-04-06 05:23:00,
2013-04-06 01:33:00,51.0,-99.9,-100.00,NW,320,10.0,11.0,-999,-99.99,,,-99.99,,2013-04-06 05:33:00,
2013-04-06 01:43:00,51.0,-99.9,-100.00,NW,325,9.0,11.0,-999,-99.99,,,-99.99,,2013-04-06 05:43:00,
2013-04-06 01:53:00,50.0,-99.9,-100.00,NW,315,9.0,11.0,-999,-99.99,,,-99.99,,2013-04-06 05:53:00,
2013-04-06 02:03:00,50.0,-99.9,-100.00,NW,305,9.0,9.0,-999,-99.99,,,-99.99,,2013-04-06 06:03:00,
2013-04-06 02:13:00,50.0,-99.9,-100.00,NW,310,9.0,10.0,-999,-99.99,,,-99.99,,2013-04-06 06:13:00,
2013-04-06 02:23:00,49.0,-99.9,-100.00,NW,305,11.0,11.0,-999,-99.99,,,-99.99,,2013-04-06 06:23:00,
2013-04-06 02:33:00,49.0,-99.9,-100.00,NW,310,11.0,13.0,-999,-99.99,,,-99.99,,2013-04-06 06:33:00,
2013-04-06 02:43:00,49.0,-99.9,-100.00,NW,310,12.0,14.0,-999,-99.99,,,-99.99,,2013-04-06 06:43:00,
2013-04-06 02:53:00,49.0,-99.9,-100.00,NW,315,11.0,14.0,-999,-99.99,,,-99.99,,2013-04-06 06:53:00,
2013-04-06 03:05:00,49.0,-99.9,-100.00,NW,320,11.0,13.0,-999,-99.99,,,-99.99,,2013-04-06 07:05:00,
2013-04-06 03:12:00,49.0,-99.9,-100.00,NW,325,11.0,13.0,-999,-99.99,,,-99.99,,2013-04-06 07:12:00,
2013-04-06 03:23:00,50.0,-99.9,-100.00,NW,325,11.0,16.0,-999,-99.99,,,-99.99,,2013-04-06 07:23:00,
2013-04-06 03:35:00,48.0,-99.9,-100.00,NW,305,12.0,14.0,-999,-99.99,,,-99.99,,2013-04-06 07:35:00,
2013-04-06 03:45:00,49.0,-99.9,-100.00,NW,305,12.0,14.0,-999,-99.99,,,-99.99,,2013-04-06 07:45:00,
2013-04-06 03:53:00,48.0,-99.9,-100.00,WNW,285,8.0,13.0,-999,-99.99,,,-99.99,,2013-04-06 07:53:00,
2013-04-06 04:02:00,48.0,-99.9,-100.00,WNW,300,10.0,14.0,-999,-99.99,,,-99.99,,2013-04-06 08:02:00,
2013-04-06 04:13:00,48.0,-99.9,-100.00,WNW,300,11.0,16.0,-999,-99.99,,,-99.99,,2013-04-06 08:13:00,
2013-04-06 04:22:00,48.0,-99.9,-100.00,WNW,300,13.0,16.0,-999,-99.99,,,-99.99,,2013-04-06 08:22:00,
2013-04-06 04:32:00,48.0,-99.9,-100.00,WNW,300,16.0,19.0,-999,-99.99,,,-99.99,,2013-04-06 08:32:00,
2013-04-06 04:43:00,48.0,-99.9,-100.00,WNW,300,16.0,19.0,-999,-99.99,,,-99.99,,2013-04-06 08:43:00,
2013-04-06 04:52:00,48.0,-99.9,-100.00,NW,305,14.0,18.0,-999,-99.99,,,-99.99,,2013-04-06 08:52:00,
2013-04-06 05:02:00,48.0,-99.9,-100.00,NW,310,14.0,18.0,-999,-99.99,,,-99.99,,2013-04-06 09:02:00,
2013-04-06 05:13:00,49.0,-99.9,-100.00,NW,310,13.0,16.0,-999,-99.99,,,-99.99,,2013-04-06 09:13:00,
2013-04-06 05:22:00,48.0,-99.9,-100.00,NW,315,11.0,14.0,-999,-99.99,,,-99.99,,2013-04-06 09:22:00,
2013-04-06 05:33:00,48.0,-99.9,-100.00,NW,320,11.0,14.0,-999,-99.99,,,-99.99,,2013-04-06 09:33:00,
2013-04-06 05:43:00,48.0,-99.9,-100.00,NW,310,11.0,14.0,-999,-99.99,,,-99.99,,2013-04-06 09:43:00,
2013-04-06 05:54:00,48.0,-99.9,-100.00,NW,310,11.0,14.0,-999,-99.99,,,-99.99,,2013-04-06 09:54:00,
2013-04-06 06:05:00,48.0,-99.9,-100.00,NW,310,11.0,14.0,-999,-99.99,,,-99.99,,2013-04-06 10:05:00,
2013-04-06 06:13:00,48.0,-99.9,-100.00,NW,315,13.0,15.0,-999,-99.99,,,-99.99,,2013-04-06 10:13:00,
2013-04-06 06:23:00,49.0,-99.9,-100.00,NW,320,12.0,14.0,-999,-99.99,,,-99.99,,2013-04-06 10:23:00,
2013-04-06 06:34:00,48.0,-99.9,-100.00,NW,315,12.0,14.0,-999,-99.99,,,-99.99,,2013-04-06 10:34:00,
2013-04-06 06:43:00,49.0,-99.9,-100.00,NW,315,12.0,14.0,-999,-99.99,,,-99.99,,2013-04-06 10:43:00,
2013-04-06 06:54:00,48.0,-99.9,-100.00,NW,320,11.0,14.0,-999,-99.99,,,-99.99,,2013-04-06 10:54:00,
2013-04-06 07:03:00,48.0,-99.9,-100.00,NW,310,11.0,13.0,-999,-99.99,,,-99.99,,2013-04-06 11:03:00,
2013-04-06 07:13:00,47.0,-99.9,-100.00,WNW,300,13.0,14.0,-999,-99.99,,,-99.99,,2013-04-06 11:13:00,
2013-04-06 07:23:00,48.0,-99.9,-100.00,NW,310,14.0,16.0,-999,-99.99,,,-99.99,,2013-04-06 11:23:00,
2013-04-06 07:33:00,48.0,-99.9,-100.00,NW,305,14.0,15.0,-999,-99.99,,,-99.99,,2013-04-06 11:33:00,
2013-04-06 07:43:00,48.0,-99.9,-100.00,WNW,300,13.0,15.0,-999,-99.99,,,-99.99,,2013-04-06 11:43:00,
2013-04-06 07:53:00,48.0,-99.9,-100.00,WNW,295,11.0,15.0,-999,-99.99,,,-99.99,,2013-04-06 11:53:00,
2013-04-06 08:03:00,48.0,-99.9,-100.00,NW,305,11.0,14.0,-999,-99.99,,,-99.99,,2013-04-06 12:03:00,
2013-04-06 08:13:00,48.0,-99.9,-100.00,NW,305,10.0,13.0,-999,-99.99,,,-99.99,,2013-04-06 12:13:00,
2013-04-06 08:22:00,48.0,-99.9,-100.00,NW,305,9.0,11.0,-999,-99.99,,,-99.99,,2013-04-06 12:22:00,
2013-04-06 08:33:00,49.0,-99.9,-100.00,NW,305,9.0,11.0,-999,-99.99,,,-99.99,,2013-04-06 12:33:00,
2013-04-06 08:44:00,50.0,-99.9,-100.00,NW,315,7.0,10.0,-999,-99.99,,,-99.99,,2013-04-06 12:44:00,
2013-04-06 08:53:00,50.0,-99.9,-100.00,NNW,330,5.0,9.0,-999,-99.99,,,-99.99,,2013-04-06 12:53:00,
2013-04-06 09:03:00,51.0,-99.9,-100.00,NW,325,4.0,8.0,-999,-99.99,,,-99.99,,2013-04-06 13:03:00,
2013-04-06 09:13:00,51.0,-99.9,-100.00,WNW,300,4.0,7.0,-999,-99.99,,,-99.99,,2013-04-06 13:13:00,
2013-04-06 09:24:00,52.0,-99.9,-100.00,NW,325,6.0,9.0,-999,-99.99,,,-99.99,,2013-04-06 13:24:00,
2013-04-06 09:33:00,53.0,-99.9,-100.00,North,350,5.0,9.0,-999,-99.99,,,-99.99,,2013-04-06 13:33:00,
2013-04-06 09:44:00,54.0,-99.9,-100.00,North,0,8.0,14.0,-999,-99.99,,,-99.99,,2013-04-06 13:44:00,
2013-04-06 09:54:00,54.0,-99.9,-100.00,NNE,30,4.0,11.0,-999,-99.99,,,-99.99,,2013-04-06 13:54:00,
2013-04-06 10:05:00,55.0,-99.9,-100.00,North,355,6.0,9.0,-999,-99.99,,,-99.99,,2013-04-06 14:05:00,
2013-04-06 10:13:00,57.0,-99.9,-100.00,North,0,5.0,8.0,-999,-99.99,,,-99.99,,2013-04-06 14:13:00,
2013-04-06 10:23:00,56.0,-99.9,-100.00,NNE,25,8.0,11.0,-999,-99.99,,,-99.99,,2013-04-06 14:23:00,
2013-04-06 10:33:00,56.0,-99.9,-100.00,NE,35,9.0,11.0,-999,-99.99,,,-99.99,,2013-04-06 14:33:00,
2013-04-06 10:43:00,57.0,-99.9,-100.00,NNE,30,11.0,13.0,-999,-99.99,,,-99.99,,2013-04-06 14:43:00,
2013-04-06 10:54:00,57.0,-99.9,-100.00,NNE,30,11.0,13.0,-999,-99.99,,,-99.99,,2013-04-06 14:54:00,
2013-04-06 11:02:00,58.0,-99.9,-100.00,NNE,20,11.0,14.0,-999,-99.99,,,-99.99,,2013-04-06 15:02:00,
2013-04-06 11:12:00,59.0,-99.9,-100.00,NNE,30,9.0,13.0,-999,-99.99,,,-99.99,,2013-04-06 15:12:00,
2013-04-06 11:23:00,60.0,-99.9,-100.00,NNE,25,9.0,13.0,-999,-99.99,,,-99.99,,2013-04-06 15:23:00,
2013-04-06 11:34:00,60.0,-99.9,-100.00,NNE,20,9.0,11.0,-999,-99.99,,,-99.99,,2013-04-06 15:34:00,
2013-04-06 11:44:00,61.0,-99.9,-100.00,NNE,30,11.0,13.0,-999,-99.99,,,-99.99,,2013-04-06 15:44:00,
2013-04-06 11:54:00,61.0,-99.9,-100.00,NNE,30,11.0,13.0,-999,-99.99,,,-99.99,,2013-04-06 15:54:00,
2013-04-06 12:05:00,62.0,-99.9,-100.00,NE,40,13.0,16.0,-999,-99.99,,,-99.99,,2013-04-06 16:05:00,
2013-04-06 12:18:00,63.0,-99.9,-100.00,ENE,70,14.0,18.0,-999,-99.99,,,-99.99,,2013-04-06 16:18:00,
2013-04-06 12:23:00,63.0,-99.9,-100.00,NE,50,11.0,21.0,-999,-99.99,,,-99.99,,2013-04-06 16:23:00,
2013-04-06 12:33:00,63.0,-99.9,-100.00,ENE,70,15.0,24.0,-999,-99.99,,,-99.99,,2013-04-06 16:33:00,
2013-04-06 12:43:00,64.0,-99.9,-100.00,NE,40,10.0,17.0,-999,-99.99,,,-99.99,,2013-04-06 16:43:00,
2013-04-06 12:53:00,63.0,-99.9,-100.00,NE,50,14.0,20.0,-999,-99.99,,,-99.99,,2013-04-06 16:53:00,
2013-04-06 13:03:00,64.0,-99.9,-100.00,ENE,70,11.0,23.0,-999,-99.99,,,-99.99,,2013-04-06 17:03:00,
2013-04-06 13:13:00,64.0,-99.9,-100.00,East,95,13.0,20.0,-999,-99.99,,,-99.99,,2013-04-06 17:13:00,
2013-04-06 13:23:00,63.0,-99.9,-100.00,ENE,60,19.0,23.0,-999,-99.99,,,-99.99,,2013-04-06 17:23:00,
2013-04-06 13:33:00,65.0,-99.9,-100.00,ENE,75,11.0,21.0,-999,-99.99,,,-99.99,,2013-04-06 17:33:00,
2013-04-06 13:43:00,64.0,-99.9,-100.00,ENE,75,13.0,22.0,-999,-99.99,,,-99.99,,2013-04-06 17:43:00,
2013-04-06 13:53:00,64.0,-99.9,-100.00,ENE,70,12.0,20.0,-999,-99.99,,,-99.99,,2013-04-06 17:53:00,
2013-04-06 14:04:00,65.0,-99.9,-100.00,ENE,75,12.0,18.0,-999,-99.99,,,-99.99,,2013-04-06 18:04:00,
2013-04-06 14:13:00,64.0,-99.9,-100.00,East,90,11.0,20.0,-999,-99.99,,,-99.99,,2013-04-06 18:13:00,
2013-04-06 14:24:00,65.0,-99.9,-100.00,East,95,11.0,20.0,-999,-99.99,,,-99.99,,2013-04-06 18:24:00,
2013-04-06 14:33:00,63.0,-99.9,-100.00,ENE,70,19.0,21.0,-999,-99.99,,,-99.99,,2013-04-06 18:33:00,
2013-04-06 14:43:00,63.0,-99.9,-100.00,East,85,11.0,23.0,-999,-99.99,,,-99.99,,2013-04-06 18:43:00,
2013-04-06 14:53:00,64.0,-99.9,-100.00,ENE,75,9.0,19.0,-999,-99.99,,,-99.99,,2013-04-06 18:53:00,
2013-04-06 15:03:00,62.0,-99.9,-100.00,ENE,70,14.0,23.0,-999,-99.99,,,-99.99,,2013-04-06 19:03:00,
2013-04-06 15:12:00,63.0,-99.9,-100.00,East,85,12.0,21.0,-999,-99.99,,,-99.99,,2013-04-06 19:12:00,
2013-04-06 15:23:00,63.0,-99.9,-100.00,ENE,70,15.0,22.0,-999,-99.99,,,-99.99,,2013-04-06 19:23:00,
2013-04-06 15:33:00,63.0,-99.9,-100.00,ENE,60,14.0,21.0,-999,-99.99,,,-99.99,,2013-04-06 19:33:00,
2013-04-06 15:43:00,63.0,-99.9,-100.00,ENE,65,11.0,20.0,-999,-99.99,,,-99.99,,2013-04-06 19:43:00,
2013-04-06 15:54:00,63.0,-99.9,-100.00,ENE,65,11.0,20.0,-999,-99.99,,,-99.99,,2013-04-06 19:54:00,
2013-04-06 16:03:00,63.0,-99.9,-100.00,East,90,14.0,21.0,-999,-99.99,,,-99.99,,2013-04-06 20:03:00,
2013-04-06 16:13:00,63.0,-99.9,-100.00,East,85,11.0,19.0,-999,-99.99,,,-99.99,,2013-04-06 20:13:00,
2013-04-06 16:23:00,63.0,-99.9,-100.00,East,85,11.0,19.0,-999,-99.99,,,-99.99,,2013-04-06 20:23:00,
2013-04-06 16:32:00,63.0,-99.9,-100.00,East,85,11.0,19.0,-999,-99.99,,,-99.99,,2013-04-06 20:32:00,
2013-04-06 16:42:00,63.0,-99.9,-100.00,East,95,11.0,19.0,-999,-99.99,,,-99.99,,2013-04-06 20:42:00,
2013-04-06 16:53:00,62.0,-99.9,-100.00,East,80,14.0,22.0,-999,-99.99,,,-99.99,,2013-04-06 20:53:00,
2013-04-06 17:03:00,63.0,-99.9,-100.00,East,90,11.0,19.0,-999,-99.99,,,-99.99,,2013-04-06 21:03:00,
2013-04-06 17:14:00,63.0,-99.9,-100.00,East,90,11.0,19.0,-999,-99.99,,,-99.99,,2013-04-06 21:14:00,
2013-04-06 17:23:00,62.0,-99.9,-100.00,East,100,13.0,20.0,-999,-99.99,,,-99.99,,2013-04-06 21:23:00,
2013-04-06 17:33:00,63.0,-99.9,-100.00,East,80,10.0,15.0,-999,-99.99,,,-99.99,,2013-04-06 21:33:00,
2013-04-06 17:44:00,62.0,-99.9,-100.00,East,95,11.0,16.0,-999,-99.99,,,-99.99,,2013-04-06 21:44:00,
2013-04-06 17:53:00,62.0,-99.9,-100.00,East,80,11.0,19.0,-999,-99.99,,,-99.99,,2013-04-06 21:53:00,
2013-04-06 18:03:00,62.0,-99.9,-100.00,ESE,105,14.0,17.0,-999,-99.99,,,-99.99,,2013-04-06 22:03:00,
2013-04-06 18:14:00,62.0,-99.9,-100.00,East,100,11.0,17.0,-999,-99.99,,,-99.99,,2013-04-06 22:14:00,
2013-04-06 18:23:00,62.0,-99.9,-100.00,East,80,9.0,16.0,-999,-99.99,,,-99.99,,2013-04-06 22:23:00,
2013-04-06 18:35:00,61.0,-99.9,-100.00,East,85,11.0,16.0,-999,-99.99,,,-99.99,,2013-04-06 22:35:00,
2013-04-06 18:44:00,61.0,-99.9,-100.00,East,80,8.0,16.0,-999,-99.99,,,-99.99,,2013-04-06 22:44:00,
2013-04-06 18:55:00,60.0,-99.9,-100.00,East,95,11.0,15.0,-999,-99.99,,,-99.99,,2013-04-06 22:55:00,
2013-04-06 19:04:00,60.0,-99.9,-100.00,East,90,10.0,14.0,-999,-99.99,,,-99.99,,2013-04-06 23:04:00,
2013-04-06 19:14:00,60.0,-99.9,-100.00,East,95,10.0,13.0,-999,-99.99,,,-99.99,,2013-04-06 23:14:00,
2013-04-06 19:24:00,59.0,-99.9,-100.00,East,85,9.0,14.0,-999,-99.99,,,-99.99,,2013-04-06 23:24:00,
2013-04-06 19:35:00,59.0,-99.9,-100.00,East,80,8.0,13.0,-999,-99.99,,,-99.99,,2013-04-06 23:35:00,
2013-04-06 19:43:00,58.0,-99.9,-100.00,ESE,105,11.0,14.0,-999,-99.99,,,-99.99,,2013-04-06 23:43:00,
2013-04-06 19:54:00,58.0,-99.9,-100.00,East,80,6.0,14.0,-999,-99.99,,,-99.99,,2013-04-06 23:54:00,
2013-04-06 20:03:00,58.0,-99.9,-100.00,East,90,7.0,13.0,-999,-99.99,,,-99.99,,2013-04-07 00:03:00,
2013-04-06 20:13:00,58.0,-99.9,-100.00,ENE,75,6.0,10.0,-999,-99.99,,,-99.99,,2013-04-07 00:13:00,
2013-04-06 20:23:00,58.0,-99.9,-100.00,ENE,65,5.0,9.0,-999,-99.99,,,-99.99,,2013-04-07 00:23:00,
2013-04-06 20:33:00,58.0,-99.9,-100.00,ENE,65,5.0,9.0,-999,-99.99,,,-99.99,,2013-04-07 00:33:00,
2013-04-06 20:44:00,57.0,-99.9,-100.00,East,100,6.0,9.0,-999,-99.99,,,-99.99,,2013-04-07 00:44:00,
2013-04-06 21:03:00,57.0,-99.9,-100.00,East,80,5.0,9.0,-999,-99.99,,,-99.99,,2013-04-07 01:03:00,
2013-04-06 21:12:00,57.0,-99.9,-100.00,East,95,4.0,9.0,-999,-99.99,,,-99.99,,2013-04-07 01:12:00,
2013-04-06 21:24:00,57.0,-99.9,-100.00,East,90,4.0,6.0,-999,-99.99,,,-99.99,,2013-04-07 01:24:00,
2013-04-06 21:33:00,57.0,-99.9,-100.00,East,100,3.0,6.0,-999,-99.99,,,-99.99,,2013-04-07 01:33:00,
2013-04-06 21:43:00,57.0,-99.9,-100.00,ESE,105,4.0,7.0,-999,-99.99,,,-99.99,,2013-04-07 01:43:00,
2013-04-06 21:54:00,57.0,-99.9,-100.00,ESE,105,4.0,7.0,-999,-99.99,,,-99.99,,2013-04-07 01:54:00,
2013-04-06 22:04:00,56.0,-99.9,-100.00,ENE,70,4.0,7.0,-999,-99.99,,,-99.99,,2013-04-07 02:04:00,
2013-04-06 22:13:00,56.0,-99.9,-100.00,East,95,4.0,8.0,-999,-99.99,,,-99.99,,2013-04-07 02:13:00,
2013-04-06 22:24:00,56.0,-99.9,-100.00,East,80,4.0,6.0,-999,-99.99,,,-99.99,,2013-04-07 02:24:00,
2013-04-06 22:33:00,56.0,-99.9,-100.00,ENE,75,5.0,7.0,-999,-99.99,,,-99.99,,2013-04-07 02:33:00,
2013-04-06 22:43:00,56.0,-99.9,-100.00,ENE,70,5.0,9.0,-999,-99.99,,,-99.99,,2013-04-07 02:43:00,
2013-04-06 22:53:00,55.0,-99.9,-100.00,ENE,75,6.0,9.0,-999,-99.99,,,-99.99,,2013-04-07 02:53:00,
2013-04-06 23:03:00,55.0,-99.9,-100.00,ENE,75,7.0,9.0,-999,-99.99,,,-99.99,,2013-04-07 03:03:00,
2013-04-06 23:13:00,55.0,-99.9,-100.00,ENE,70,7.0,9.0,-999,-99.99,,,-99.99,,2013-04-07 03:13:00,
2013-04-06 23:23:00,55.0,-99.9,-100.00,ENE,75,6.0,7.0,-999,-99.99,,,-99.99,,2013-04-07 03:23:00,
2013-04-06 23:35:00,55.0,-99.9,-100.00,ENE,75,5.0,7.0,-999,-99.99,,,-99.99,,2013-04-07 03:35:00,
2013-04-06 23:44:00,55.0,-99.9,-100.00,ENE,75,4.0,6.0,-999,-99.99,,,-99.99,,2013-04-07 03:44:00,
2013-04-06 23:55:00,55.0,-99.9,-100.00,East,90,3.0,6.0,-999,-99.99,,,-99.99,,2013-04-07 03:55:00,